Time,TemperatureF,DewpointF,PressureIn,WindDirection,WindDirectionDegrees,WindSpeedMPH,WindSpeedGustMPH,Humidity,HourlyPrecipIn,Conditions,Clouds,dailyrainin,SoftwareType,DateUTC
2013-04-25 00:00:00,41.1,33.5,30.17,NNE,23,0.0,2.0,74,0.00,,,0.00,VWS V14.01,2013-04-25 05:00:00,
2013-04-25 00:01:00,37.2,30.7,30.17,NNE,23,0.0,0.0,77,0.00,,,0.00,VWS V14.01,2013-04-25 05:01:00,
2013-04-25 00:06:00,37.0,30.1,30.17,NNE,23,1.0,5.0,76,0.00,,,0.00,VWS V14.01,2013-04-25 05:06:00,
2013-04-25 00:11:00,36.0,30.4,30.17,NNE,23,1.0,5.0,80,0.00,,,0.00,VWS V14.01,2013-04-25 05:11:00,
2013-04-25 00:15:00,38.0,30.1,30.17,NNE,23,0.0,2.0,73,0.00,,,0.00,VWS V14.01,2013-04-25 05:15:00,
2013-04-25 00:16:00,34.9,29.7,30.17,NNE,23,0.0,5.0,81,0.00,,,0.00,VWS V14.01,2013-04-25 05:16:00,
2013-04-25 00:21:00,34.3,30.6,30.16,NNE,23,0.0,0.0,86,0.00,,,0.00,VWS V14.01,2013-04-25 05:21:00,
2013-04-25 00:26:00,34.1,30.9,30.16,NNE,23,0.0,0.0,88,0.00,,,0.00,VWS V14.01,2013-04-25 05:26:00,
2013-04-25 00:30:00,36.6,30.1,30.17,NNE,23,0.0,0.0,77,0.00,,,0.00,VWS V14.01,2013-04-25 05:30:00,
2013-04-25 00:31:00,34.4,30.9,30.17,NNE,23,0.0,0.0,87,0.00,,,0.00,VWS V14.01,2013-04-25 05:31:00,
2013-04-25 00:36:00,34.9,30.6,30.17,NNE,23,0.0,0.0,84,0.00,,,0.00,VWS V14.01,2013-04-25 05:36:00,
2013-04-25 00:41:00,35.2,30.3,30.17,NNE,23,2.0,2.0,82,0.00,,,0.00,VWS V14.01,2013-04-25 05:41:00,
2013-04-25 00:46:00,35.0,30.4,30.16,NNE,23,0.0,2.0,83,0.00,,,0.00,VWS V14.01,2013-04-25 05:46:00,
2013-04-25 00:51:00,34.7,30.7,30.16,NNE,23,0.0,0.0,85,0.00,,,0.00,VWS V14.01,2013-04-25 05:51:00,
2013-04-25 00:56:00,34.6,30.9,30.16,NNE,23,0.0,2.0,86,0.00,,,0.00,VWS V14.01,2013-04-25 05:56:00,
2013-04-25 01:00:00,37.2,30.7,30.17,NNE,23,0.0,0.0,77,0.00,,,0.00,VWS V14.01,2013-04-25 06:00:00,
2013-04-25 01:01:00,34.4,30.9,30.16,NNE,23,0.0,2.0,87,0.00,,,0.00,VWS V14.01,2013-04-25 06:01:00,
2013-04-25 01:06:00,34.3,30.8,30.16,NNE,23,0.0,0.0,87,0.00,,,0.00,VWS V14.01,2013-04-25 06:06:00,
2013-04-25 01:11:00,34.3,30.8,30.16,NNE,23,0.0,0.0,87,0.00,,,0.00,VWS V14.01,2013-04-25 06:11:00,
2013-04-25 01:15:00,34.7,30.1,30.16,NNE,23,0.0,5.0,83,0.00,,,0.00,VWS V14.01,2013-04-25 06:15:00,
2013-04-25 01:16:00,34.1,30.6,30.16,NNE,23,0.0,0.0,87,0.00,,,0.00,VWS V14.01,2013-04-25 06:16:00,
2013-04-25 01:21:00,33.8,30.6,30.15,NNE,23,0.0,0.0,88,0.00,,,0.00,VWS V14.01,2013-04-25 06:21:00,
2013-04-25 01:26:00,33.2,30.6,30.15,NNE,23,0.0,0.0,90,0.00,,,0.00,VWS V14.01,2013-04-25 06:26:00,
2013-04-25 01:30:00,34.4,30.9,30.17,NNE,23,0.0,0.0,87,0.00,,,0.00,VWS V14.01,2013-04-25 06:30:00,
2013-04-25 01:31:00,32.8,31.3,30.15,NNE,23,0.0,0.0,94,0.00,,,0.00,VWS V14.01,2013-04-25 06:31:00,
2013-04-25 01:36:00,32.5,32.5,30.15,NNE,23,0.0,0.0,100,0.00,,,0.00,VWS V14.01,2013-04-25 06:36:00,
2013-04-25 01:41:00,32.7,32.7,30.15,NNE,23,0.0,0.0,100,0.00,,,0.00,VWS V14.01,2013-04-25 06:41:00,
2013-04-25 01:45:00,34.9,30.6,30.16,NNE,23,0.0,2.0,84,0.00,,,0.00,VWS V14.01,2013-04-25 06:45:00,
2013-04-25 01:46:00,33.1,33.1,30.15,NNE,23,1.0,2.0,100,0.00,,,0.00,VWS V14.01,2013-04-25 06:46:00,
2013-04-25 01:51:00,33.1,33.1,30.15,NNE,23,0.0,2.0,100,0.00,,,0.00,VWS V14.01,2013-04-25 06:51:00,
2013-04-25 01:56:00,32.8,32.8,30.15,NNE,23,0.0,2.0,100,0.00,,,0.00,VWS V14.01,2013-04-25 06:56:00,
2013-04-25 02:01:00,32.4,32.4,30.15,NNE,23,2.0,5.0,100,0.00,,,0.00,VWS V14.01,2013-04-25 07:01:00,
2013-04-25 02:06:00,32.1,32.1,30.16,NNE,23,2.0,5.0,100,0.00,,,0.00,VWS V14.01,2013-04-25 07:06:00,
2013-04-25 02:11:00,31.6,31.6,30.16,NNE,23,1.0,5.0,100,0.00,,,0.00,VWS V14.01,2013-04-25 07:11:00,
2013-04-25 02:15:00,34.1,30.6,30.15,NNE,23,0.0,0.0,87,0.00,,,0.00,VWS V14.01,2013-04-25 07:15:00,
2013-04-25 02:16:00,31.6,31.6,30.16,NNE,23,1.0,5.0,100,0.00,,,0.00,VWS V14.01,2013-04-25 07:16:00,
2013-04-25 02:21:00,31.6,31.6,30.15,NNE,23,2.0,5.0,100,0.00,,,0.00,VWS V14.01,2013-04-25 07:21:00,
2013-04-25 02:26:00,31.9,31.9,30.15,NNE,23,4.0,5.0,100,0.00,,,0.00,VWS V14.01,2013-04-25 07:26:00,
2013-04-25 02:30:00,32.7,31.7,30.15,NNE,23,0.0,0.0,96,0.00,,,0.00,VWS V14.01,2013-04-25 07:30:00,
2013-04-25 02:31:00,32.2,32.2,30.15,NNE,23,3.0,6.0,100,0.00,,,0.00,VWS V14.01,2013-04-25 07:31:00,
2013-04-25 02:36:00,32.1,32.1,30.15,NNE,23,5.0,5.0,100,0.00,,,0.00,VWS V14.01,2013-04-25 07:36:00,
2013-04-25 02:41:00,31.8,31.8,30.15,NNE,23,3.0,5.0,100,0.00,,,0.00,VWS V14.01,2013-04-25 07:41:00,
2013-04-25 02:45:00,33.1,33.1,30.15,NNE,23,1.0,2.0,100,0.00,,,0.00,VWS V14.01,2013-04-25 07:45:00,
2013-04-25 02:46:00,31.6,31.6,30.15,NNE,23,2.0,5.0,100,0.00,,,0.00,VWS V14.01,2013-04-25 07:46:00,
2013-04-25 02:51:00,31.6,31.6,30.15,NNE,23,2.0,5.0,100,0.00,,,0.00,VWS V14.01,2013-04-25 07:51:00,
2013-04-25 02:56:00,31.6,31.6,30.15,West,278,5.0,5.0,100,0.00,,,0.00,VWS V14.01,2013-04-25 07:56:00,
2013-04-25 03:00:00,32.4,32.4,30.16,NNE,23,4.0,5.0,100,0.00,,,0.00,VWS V14.01,2013-04-25 08:00:00,
2013-04-25 03:01:00,31.3,31.3,30.15,WSW,244,5.0,7.0,100,0.00,,,0.00,VWS V14.01,2013-04-25 08:01:00,
2013-04-25 03:06:00,31.0,31.0,30.16,WSW,244,3.0,6.0,100,0.00,,,0.00,VWS V14.01,2013-04-25 08:06:00,
2013-04-25 03:11:00,30.7,30.7,30.16,WSW,244,3.0,6.0,100,0.00,,,0.00,VWS V14.01,2013-04-25 08:11:00,
2013-04-25 03:15:00,31.6,31.6,30.15,NNE,23,0.0,5.0,100,0.00,,,0.00,VWS V14.01,2013-04-25 08:15:00,
2013-04-25 03:16:00,30.7,30.7,30.16,WSW,244,5.0,6.0,100,0.00,,,0.00,VWS V14.01,2013-04-25 08:16:00,
2013-04-25 03:21:00,31.0,31.0,30.16,WSW,244,0.0,5.0,100,0.00,,,0.00,VWS V14.01,2013-04-25 08:21:00,
2013-04-25 03:26:00,31.3,31.3,30.16,WSW,244,2.0,5.0,100,0.00,,,0.00,VWS V14.01,2013-04-25 08:26:00,
2013-04-25 03:31:00,31.8,31.8,30.16,WSW,244,2.0,5.0,100,0.00,,,0.00,VWS V14.01,2013-04-25 08:31:00,
2013-04-25 03:36:00,32.2,32.2,30.15,WSW,244,2.0,5.0,100,0.00,,,0.00,VWS V14.01,2013-04-25 08:36:00,
2013-04-25 03:41:00,32.4,32.4,30.15,WSW,244,2.0,5.0,100,0.00,,,0.00,VWS V14.01,2013-04-25 08:41:00,
2013-04-25 03:45:00,31.6,31.6,30.15,NNE,23,2.0,5.0,100,0.00,,,0.00,VWS V14.01,2013-04-25 08:45:00,
2013-04-25 03:46:00,32.5,32.5,30.15,WSW,244,5.0,5.0,100,0.00,,,0.00,VWS V14.01,2013-04-25 08:46:00,
2013-04-25 03:51:00,32.5,32.5,30.15,WSW,244,4.0,5.0,100,0.00,,,0.00,VWS V14.01,2013-04-25 08:51:00,
2013-04-25 03:56:00,32.4,32.4,30.15,WSW,244,2.0,5.0,100,0.00,,,0.00,VWS V14.01,2013-04-25 08:56:00,
2013-04-25 04:01:00,32.1,32.1,30.15,WSW,244,3.0,5.0,100,0.00,,,0.00,VWS V14.01,2013-04-25 09:01:00,
2013-04-25 04:06:00,32.1,32.1,30.16,WSW,244,3.0,3.0,100,0.00,,,0.00,VWS V14.01,2013-04-25 09:06:00,
2013-04-25 04:11:00,32.2,32.2,30.16,WSW,244,2.0,5.0,100,0.00,,,0.00,VWS V14.01,2013-04-25 09:11:00,
2013-04-25 04:15:00,30.7,30.7,30.16,WSW,244,5.0,6.0,100,0.00,,,0.00,VWS V14.01,2013-04-25 09:15:00,
2013-04-25 04:16:00,32.4,32.4,30.16,WSW,244,3.0,5.0,100,0.00,,,0.00,VWS V14.01,2013-04-25 09:16:00,
2013-04-25 04:21:00,32.5,32.5,30.16,WSW,244,3.0,5.0,100,0.00,,,0.00,VWS V14.01,2013-04-25 09:21:00,
2013-04-25 04:26:00,32.5,32.5,30.16,WSW,244,3.0,5.0,100,0.00,,,0.00,VWS V14.01,2013-04-25 09:26:00,
2013-04-25 04:30:00,31.9,31.9,30.15,WSW,244,5.0,5.0,100,0.00,,,0.00,VWS V14.01,2013-04-25 09:30:00,
2013-04-25 04:31:00,32.7,32.7,30.16,WSW,244,3.0,5.0,100,0.00,,,0.00,VWS V14.01,2013-04-25 09:31:00,
2013-04-25 04:36:00,32.9,32.9,30.16,WSW,244,5.0,5.0,100,0.00,,,0.00,VWS V14.01,2013-04-25 09:36:00,
2013-04-25 04:41:00,33.1,33.1,30.16,WSW,244,5.0,5.0,100,0.00,,,0.00,VWS V14.01,2013-04-25 09:41:00,
2013-04-25 04:45:00,32.5,32.5,30.15,WSW,244,5.0,5.0,100,0.00,,,0.00,VWS V14.01,2013-04-25 09:45:00,
2013-04-25 04:46:00,33.4,33.4,30.16,WSW,244,5.0,6.0,100,0.00,,,0.00,VWS V14.01,2013-04-25 09:46:00,
2013-04-25 04:51:00,33.7,33.7,30.16,WSW,244,6.0,7.0,100,0.00,,,0.00,VWS V14.01,2013-04-25 09:51:00,
2013-04-25 04:56:00,33.7,33.7,30.16,WSW,244,2.0,7.0,100,0.00,,,0.00,VWS V14.01,2013-04-25 09:56:00,
2013-04-25 05:00:00,32.1,32.1,30.16,WSW,244,2.0,5.0,100,0.00,,,0.00,VWS V14.01,2013-04-25 10:00:00,
2013-04-25 05:01:00,33.5,33.5,30.16,WSW,244,2.0,7.0,100,0.00,,,0.00,VWS V14.01,2013-04-25 10:01:00,
2013-04-25 05:06:00,33.4,33.4,30.16,WSW,244,2.0,5.0,100,0.00,,,0.00,VWS V14.01,2013-04-25 10:06:00,
2013-04-25 05:11:00,33.5,33.5,30.16,WSW,244,3.0,5.0,100,0.00,,,0.00,VWS V14.01,2013-04-25 10:11:00,
2013-04-25 05:15:00,32.5,32.5,30.16,WSW,244,4.0,5.0,100,0.00,,,0.00,VWS V14.01,2013-04-25 10:15:00,
2013-04-25 05:16:00,33.5,33.5,30.16,WSW,244,2.0,5.0,100,0.00,,,0.00,VWS V14.01,2013-04-25 10:16:00,
2013-04-25 05:21:00,33.7,33.7,30.16,WSW,244,3.0,4.0,100,0.00,,,0.00,VWS V14.01,2013-04-25 10:21:00,
2013-04-25 05:26:00,33.7,33.7,30.16,WSW,244,1.0,4.0,100,0.00,,,0.00,VWS V14.01,2013-04-25 10:26:00,
2013-04-25 05:30:00,32.7,32.7,30.16,WSW,244,3.0,5.0,100,0.00,,,0.00,VWS V14.01,2013-04-25 10:30:00,
2013-04-25 05:31:00,33.7,33.7,30.15,WSW,244,2.0,4.0,100,0.00,,,0.00,VWS V14.01,2013-04-25 10:31:00,
2013-04-25 05:36:00,33.7,33.7,30.15,WSW,244,2.0,5.0,100,0.00,,,0.00,VWS V14.01,2013-04-25 10:36:00,
2013-04-25 05:41:00,33.7,33.7,30.15,WSW,244,2.0,5.0,100,0.00,,,0.00,VWS V14.01,2013-04-25 10:41:00,
2013-04-25 05:45:00,33.4,33.4,30.16,WSW,244,4.0,6.0,100,0.00,,,0.00,VWS V14.01,2013-04-25 10:45:00,
2013-04-25 05:46:00,33.5,33.5,30.16,SW,227,6.0,7.0,100,0.00,,,0.00,VWS V14.01,2013-04-25 10:46:00,
2013-04-25 05:51:00,33.4,33.4,30.16,SW,229,5.0,6.0,100,0.00,,,0.00,VWS V14.01,2013-04-25 10:51:00,
2013-04-25 05:56:00,33.1,33.1,30.16,SW,229,5.0,7.0,100,0.00,,,0.00,VWS V14.01,2013-04-25 10:56:00,
2013-04-25 06:00:00,33.5,33.5,30.16,WSW,244,2.0,7.0,100,0.00,,,0.00,VWS V14.01,2013-04-25 11:00:00,
2013-04-25 06:01:00,32.9,32.9,30.16,SW,229,2.0,7.0,100,0.00,,,0.00,VWS V14.01,2013-04-25 11:01:00,
2013-04-25 06:06:00,32.9,32.9,30.16,SW,229,3.0,4.0,100,0.00,,,0.00,VWS V14.01,2013-04-25 11:06:00,
2013-04-25 06:11:00,32.9,32.9,30.16,SW,227,5.0,5.0,100,0.00,,,0.00,VWS V14.01,2013-04-25 11:11:00,
2013-04-25 06:15:00,33.5,33.5,30.16,WSW,244,2.0,5.0,100,0.00,,,0.00,VWS V14.01,2013-04-25 11:15:00,
2013-04-25 06:16:00,32.9,32.9,30.15,SW,227,2.0,6.0,100,0.00,,,0.00,VWS V14.01,2013-04-25 11:16:00,
2013-04-25 06:21:00,33.1,33.1,30.15,SW,227,6.0,7.0,100,0.00,,,0.00,VWS V14.01,2013-04-25 11:21:00,
2013-04-25 06:26:00,33.1,33.1,30.15,SSW,213,5.0,7.0,100,0.00,,,0.00,VWS V14.01,2013-04-25 11:26:00,
2013-04-25 06:30:00,33.7,33.7,30.15,WSW,244,2.0,4.0,100,0.00,,,0.00,VWS V14.01,2013-04-25 11:30:00,
2013-04-25 06:31:00,33.2,33.2,30.15,SSW,213,5.0,7.0,100,0.00,,,0.00,VWS V14.01,2013-04-25 11:31:00,
2013-04-25 06:36:00,33.1,33.1,30.15,SSW,213,5.0,7.0,100,0.00,,,0.00,VWS V14.01,2013-04-25 11:36:00,
2013-04-25 06:41:00,32.8,32.8,30.15,SSW,213,5.0,7.0,100,0.00,,,0.00,VWS V14.01,2013-04-25 11:41:00,
2013-04-25 06:45:00,33.5,33.5,30.16,SW,227,5.0,7.0,100,0.00,,,0.00,VWS V14.01,2013-04-25 11:45:00,
2013-04-25 06:46:00,32.7,32.7,30.15,SSW,213,6.0,7.0,100,0.00,,,0.00,VWS V14.01,2013-04-25 11:46:00,
2013-04-25 06:51:00,32.4,32.4,30.15,SSW,213,4.0,7.0,100,0.00,,,0.00,VWS V14.01,2013-04-25 11:51:00,
2013-04-25 06:56:00,32.2,32.2,30.15,SSW,213,7.0,8.0,100,0.00,,,0.00,VWS V14.01,2013-04-25 11:56:00,
2013-04-25 07:00:00,32.9,32.9,30.16,SW,229,3.0,7.0,100,0.00,,,0.00,VWS V14.01,2013-04-25 12:00:00,
2013-04-25 07:01:00,32.2,32.2,30.15,SSW,213,6.0,8.0,100,0.00,,,0.00,VWS V14.01,2013-04-25 12:01:00,
2013-04-25 07:06:00,32.4,32.4,30.15,SSW,205,6.0,10.0,100,0.00,,,0.00,VWS V14.01,2013-04-25 12:06:00,
2013-04-25 07:11:00,32.5,32.5,30.15,SSW,205,4.0,10.0,100,0.00,,,0.00,VWS V14.01,2013-04-25 12:11:00,
2013-04-25 07:15:00,32.9,32.9,30.15,SW,227,4.0,6.0,100,0.00,,,0.00,VWS V14.01,2013-04-25 12:15:00,
2013-04-25 07:16:00,32.5,32.5,30.15,SSW,205,4.0,10.0,100,0.00,,,0.00,VWS V14.01,2013-04-25 12:16:00,
2013-04-25 07:22:00,32.7,32.7,30.15,SSW,205,6.0,7.0,100,0.00,,,0.00,VWS V14.01,2013-04-25 12:22:00,
2013-04-25 07:27:00,32.7,32.7,30.15,SSW,205,3.0,7.0,100,0.00,,,0.00,VWS V14.01,2013-04-25 12:27:00,
2013-04-25 07:30:00,33.2,33.2,30.15,SSW,213,5.0,7.0,100,0.00,,,0.00,VWS V14.01,2013-04-25 12:30:00,
2013-04-25 07:32:00,32.7,32.7,30.15,SSW,205,5.0,7.0,100,0.00,,,0.00,VWS V14.01,2013-04-25 12:32:00,
2013-04-25 07:36:00,32.8,32.8,30.15,SSW,205,3.0,7.0,100,0.00,,,0.00,VWS V14.01,2013-04-25 12:36:00,
2013-04-25 07:41:00,32.9,32.9,30.15,SSW,205,5.0,7.0,100,0.00,,,0.00,VWS V14.01,2013-04-25 12:41:00,
2013-04-25 07:45:00,32.5,32.5,30.15,SSW,213,5.0,7.0,100,0.00,,,0.00,VWS V14.01,2013-04-25 12:45:00,
2013-04-25 07:47:00,33.4,33.4,30.15,SSW,205,6.0,7.0,100,0.00,,,0.00,VWS V14.01,2013-04-25 12:47:00,
2013-04-25 07:52:00,34.0,34.0,30.15,SSW,205,7.0,7.0,100,0.00,,,0.00,VWS V14.01,2013-04-25 12:52:00,
2013-04-25 07:57:00,34.4,34.4,30.15,SSW,205,6.0,7.0,100,0.00,,,0.00,VWS V14.01,2013-04-25 12:57:00,
2013-04-25 08:00:00,32.2,32.2,30.15,SSW,213,7.0,8.0,100,0.00,,,0.00,VWS V14.01,2013-04-25 13:00:00,
2013-04-25 08:02:00,35.2,35.2,30.14,SSW,203,7.0,7.0,100,0.00,,,0.00,VWS V14.01,2013-04-25 13:02:00,
2013-04-25 08:07:00,36.0,36.0,30.14,SSW,200,6.0,8.0,100,0.00,,,0.00,VWS V14.01,2013-04-25 13:07:00,
2013-04-25 08:12:00,37.0,37.0,30.14,SSW,193,11.0,12.0,100,0.00,,,0.00,VWS V14.01,2013-04-25 13:12:00,
2013-04-25 08:15:00,32.5,32.5,30.15,SSW,205,5.0,10.0,100,0.00,,,0.00,VWS V14.01,2013-04-25 13:15:00,
2013-04-25 08:17:00,38.0,38.0,30.14,SSW,199,12.0,14.0,100,0.00,,,0.00,VWS V14.01,2013-04-25 13:17:00,
2013-04-25 08:22:00,38.9,37.3,30.14,SSW,199,10.0,11.0,94,0.00,,,0.00,VWS V14.01,2013-04-25 13:22:00,
2013-04-25 08:27:00,39.8,36.0,30.14,SSW,198,7.0,14.0,86,0.00,,,0.00,VWS V14.01,2013-04-25 13:27:00,
2013-04-25 08:30:00,32.7,32.7,30.15,SSW,205,5.0,7.0,100,0.00,,,0.00,VWS V14.01,2013-04-25 13:30:00,
2013-04-25 08:32:00,40.3,36.2,30.13,SSW,202,10.0,14.0,85,0.00,,,0.00,VWS V14.01,2013-04-25 13:32:00,
2013-04-25 08:37:00,41.1,36.0,30.13,South,189,9.0,13.0,82,0.00,,,0.00,VWS V14.01,2013-04-25 13:37:00,
2013-04-25 08:42:00,41.6,35.3,30.13,South,188,5.0,18.0,78,0.00,,,0.00,VWS V14.01,2013-04-25 13:42:00,
2013-04-25 08:45:00,33.4,33.4,30.15,SSW,205,6.0,7.0,100,0.00,,,0.00,VWS V14.01,2013-04-25 13:45:00,
2013-04-25 08:47:00,42.2,35.2,30.12,SSW,195,11.0,18.0,76,0.00,,,0.00,VWS V14.01,2013-04-25 13:47:00,
2013-04-25 08:52:00,42.6,34.9,30.12,South,189,7.0,14.0,74,0.00,,,0.00,VWS V14.01,2013-04-25 13:52:00,
2013-04-25 08:57:00,42.9,34.5,30.12,South,191,7.0,17.0,72,0.00,,,0.00,VWS V14.01,2013-04-25 13:57:00,
2013-04-25 09:00:00,35.2,35.2,30.14,SSW,203,5.0,7.0,100,0.00,,,0.00,VWS V14.01,2013-04-25 14:00:00,
2013-04-25 09:02:00,43.2,34.1,30.11,South,186,6.0,17.0,70,0.00,,,0.00,VWS V14.01,2013-04-25 14:02:00,
2013-04-25 09:07:00,43.5,33.7,30.11,SSW,192,10.0,14.0,68,0.00,,,0.00,VWS V14.01,2013-04-25 14:07:00,
2013-04-25 09:12:00,43.6,34.1,30.11,SSE,168,8.0,16.0,69,0.00,,,0.00,VWS V14.01,2013-04-25 14:12:00,
2013-04-25 09:15:00,38.2,38.2,30.14,SSW,199,10.0,14.0,100,0.00,,,0.00,VWS V14.01,2013-04-25 14:15:00,
2013-04-25 09:17:00,43.9,34.4,30.11,SSW,195,12.0,17.0,69,0.00,,,0.00,VWS V14.01,2013-04-25 14:17:00,
2013-04-25 09:22:00,44.2,33.6,30.11,SSW,198,9.0,21.0,66,0.00,,,0.00,VWS V14.01,2013-04-25 14:22:00,
2013-04-25 09:27:00,44.5,33.9,30.11,South,174,7.0,21.0,66,0.00,,,0.00,VWS V14.01,2013-04-25 14:27:00,
2013-04-25 09:30:00,40.5,36.3,30.13,SSW,198,10.0,14.0,85,0.00,,,0.00,VWS V14.01,2013-04-25 14:30:00,
2013-04-25 09:32:00,44.8,33.4,30.11,SSE,164,7.0,21.0,64,0.00,,,0.00,VWS V14.01,2013-04-25 14:32:00,
2013-04-25 09:37:00,45.2,33.8,30.11,SSW,195,14.0,17.0,64,0.00,,,0.00,VWS V14.01,2013-04-25 14:37:00,
2013-04-25 09:42:00,45.7,33.4,30.11,South,184,7.0,19.0,62,0.00,,,0.00,VWS V14.01,2013-04-25 14:42:00,
2013-04-25 09:45:00,42.2,35.2,30.12,South,186,7.0,18.0,76,0.00,,,0.00,VWS V14.01,2013-04-25 14:45:00,
2013-04-25 09:47:00,46.1,33.8,30.10,South,186,8.0,19.0,62,0.00,,,0.00,VWS V14.01,2013-04-25 14:47:00,
2013-04-25 09:52:00,46.7,32.7,30.10,South,186,10.0,12.0,58,0.00,,,0.00,VWS V14.01,2013-04-25 14:52:00,
2013-04-25 09:57:00,47.0,34.7,30.10,South,182,14.0,16.0,62,0.00,,,0.00,VWS V14.01,2013-04-25 14:57:00,
2013-04-25 10:00:00,43.2,34.1,30.11,South,188,8.0,17.0,70,0.00,,,0.00,VWS V14.01,2013-04-25 15:00:00,
2013-04-25 10:02:00,47.4,33.4,30.09,South,178,10.0,16.0,58,0.00,,,0.00,VWS V14.01,2013-04-25 15:02:00,
2013-04-25 10:07:00,47.7,32.8,30.09,South,175,8.0,16.0,56,0.00,,,0.00,VWS V14.01,2013-04-25 15:07:00,
2013-04-25 10:12:00,47.9,33.0,30.09,South,184,10.0,16.0,56,0.00,,,0.00,VWS V14.01,2013-04-25 15:12:00,
2013-04-25 10:15:00,44.1,34.6,30.11,South,186,8.0,17.0,69,0.00,,,0.00,VWS V14.01,2013-04-25 15:15:00,
2013-04-25 10:17:00,48.0,30.8,30.09,South,184,10.0,17.0,51,0.00,,,0.00,VWS V14.01,2013-04-25 15:17:00,
2013-04-25 10:22:00,48.2,30.9,30.09,SSW,192,11.0,20.0,51,0.00,,,0.00,VWS V14.01,2013-04-25 15:22:00,
2013-04-25 10:27:00,48.6,30.3,30.09,South,182,12.0,20.0,49,0.00,,,0.00,VWS V14.01,2013-04-25 15:27:00,
2013-04-25 10:30:00,44.9,33.5,30.11,SSE,165,8.0,21.0,64,0.00,,,0.00,VWS V14.01,2013-04-25 15:30:00,
2013-04-25 10:32:00,49.2,31.4,30.07,SSW,196,20.0,20.0,50,0.00,,,0.00,VWS V14.01,2013-04-25 15:32:00,
2013-04-25 10:37:00,49.9,32.0,30.07,SSE,162,12.0,20.0,50,0.00,,,0.00,VWS V14.01,2013-04-25 15:37:00,
2013-04-25 10:42:00,50.5,33.1,30.07,SSW,212,10.0,20.0,51,0.00,,,0.00,VWS V14.01,2013-04-25 15:42:00,
2013-04-25 10:45:00,46.1,33.8,30.10,South,174,7.0,19.0,62,0.00,,,0.00,VWS V14.01,2013-04-25 15:45:00,
2013-04-25 10:47:00,50.7,29.6,30.06,South,188,14.0,25.0,44,0.00,,,0.00,VWS V14.01,2013-04-25 15:47:00,
2013-04-25 10:52:00,50.8,32.3,30.06,SSW,198,14.0,22.0,49,0.00,,,0.00,VWS V14.01,2013-04-25 15:52:00,
2013-04-25 10:57:00,50.8,32.8,30.06,SSW,193,12.0,22.0,50,0.00,,,0.00,VWS V14.01,2013-04-25 15:57:00,
2013-04-25 11:00:00,47.4,33.4,30.09,South,181,6.0,16.0,58,0.00,,,0.00,VWS V14.01,2013-04-25 16:00:00,
2013-04-25 11:02:00,51.1,32.1,30.06,South,176,10.0,22.0,48,0.00,,,0.00,VWS V14.01,2013-04-25 16:02:00,
2013-04-25 11:07:00,51.3,34.3,30.06,South,182,10.0,19.0,52,0.00,,,0.00,VWS V14.01,2013-04-25 16:07:00,
2013-04-25 11:12:00,52.2,32.6,30.06,SSW,196,12.0,19.0,47,0.00,,,0.00,VWS V14.01,2013-04-25 16:12:00,
2013-04-25 11:15:00,48.0,30.8,30.09,South,178,8.0,17.0,51,0.00,,,0.00,VWS V14.01,2013-04-25 16:15:00,
2013-04-25 11:17:00,52.6,32.4,30.06,SSW,208,17.0,20.0,46,0.00,,,0.00,VWS V14.01,2013-04-25 16:17:00,
2013-04-25 11:22:00,53.1,32.3,30.06,SSW,199,17.0,21.0,45,0.00,,,0.00,VWS V14.01,2013-04-25 16:22:00,
2013-04-25 11:27:00,53.3,32.5,30.06,SSW,195,17.0,21.0,45,0.00,,,0.00,VWS V14.01,2013-04-25 16:27:00,
2013-04-25 11:30:00,49.2,30.9,30.07,SSW,196,12.0,20.0,49,0.00,,,0.00,VWS V14.01,2013-04-25 16:30:00,
2013-04-25 11:32:00,53.9,31.4,30.05,South,186,7.0,21.0,42,0.00,,,0.00,VWS V14.01,2013-04-25 16:32:00,
2013-04-25 11:37:00,54.8,31.6,30.05,SSW,202,21.0,24.0,41,0.00,,,0.00,VWS V14.01,2013-04-25 16:37:00,
2013-04-25 11:42:00,55.1,32.4,30.05,SSE,167,8.0,25.0,42,0.00,,,0.00,VWS V14.01,2013-04-25 16:42:00,
2013-04-25 11:45:00,50.7,29.6,30.06,SSW,203,17.0,25.0,44,0.00,,,0.00,VWS V14.01,2013-04-25 16:45:00,
2013-04-25 11:47:00,56.2,32.2,30.04,SSW,212,15.0,25.0,40,0.00,,,0.00,VWS V14.01,2013-04-25 16:47:00,
2013-04-25 11:52:00,56.6,31.3,30.04,SW,215,13.0,25.0,38,0.00,,,0.00,VWS V14.01,2013-04-25 16:52:00,
2013-04-25 11:57:00,57.0,31.7,30.04,SSW,192,15.0,25.0,38,0.00,,,0.00,VWS V14.01,2013-04-25 16:57:00,
2013-04-25 12:00:00,51.1,32.1,30.06,South,189,10.0,22.0,48,0.00,,,0.00,VWS V14.01,2013-04-25 17:00:00,
2013-04-25 12:02:00,57.6,32.8,30.03,South,186,13.0,25.0,39,0.00,,,0.00,VWS V14.01,2013-04-25 17:02:00,
2013-04-25 12:07:00,58.3,30.8,30.03,SSW,210,21.0,29.0,35,0.00,,,0.00,VWS V14.01,2013-04-25 17:07:00,
2013-04-25 12:12:00,58.7,31.1,30.03,South,169,21.0,29.0,35,0.00,,,0.00,VWS V14.01,2013-04-25 17:12:00,
2013-04-25 12:15:00,52.8,32.6,30.06,SSW,192,12.0,21.0,46,0.00,,,0.00,VWS V14.01,2013-04-25 17:15:00,
2013-04-25 12:17:00,59.0,30.0,30.02,SSW,200,20.0,29.0,33,0.00,,,0.00,VWS V14.01,2013-04-25 17:17:00,
2013-04-25 12:22:00,59.5,31.1,30.02,South,179,14.0,24.0,34,0.00,,,0.00,VWS V14.01,2013-04-25 17:22:00,
2013-04-25 12:27:00,60.1,31.7,30.02,SSW,210,13.0,24.0,34,0.00,,,0.00,VWS V14.01,2013-04-25 17:27:00,
2013-04-25 12:30:00,54.1,32.7,30.05,South,174,12.0,21.0,44,0.00,,,0.00,VWS V14.01,2013-04-25 17:30:00,
2013-04-25 12:32:00,60.7,33.6,30.01,SW,227,14.0,28.0,36,0.00,,,0.00,VWS V14.01,2013-04-25 17:32:00,
2013-04-25 12:37:00,61.0,32.5,30.01,SW,224,24.0,26.0,34,0.00,,,0.00,VWS V14.01,2013-04-25 17:37:00,
2013-04-25 12:42:00,61.3,32.0,30.01,SSW,198,20.0,26.0,33,0.00,,,0.00,VWS V14.01,2013-04-25 17:42:00,
2013-04-25 12:45:00,56.3,32.3,30.04,SSW,193,12.0,25.0,40,0.00,,,0.00,VWS V14.01,2013-04-25 17:45:00,
2013-04-25 12:47:00,62.0,31.0,30.00,SSW,193,14.0,27.0,31,0.00,,,0.00,VWS V14.01,2013-04-25 17:47:00,
2013-04-25 12:52:00,62.4,32.2,30.00,SSW,203,17.0,26.0,32,0.00,,,0.00,VWS V14.01,2013-04-25 17:52:00,
2013-04-25 12:57:00,63.1,32.0,30.00,SSW,192,17.0,26.0,31,0.00,,,0.00,VWS V14.01,2013-04-25 17:57:00,
2013-04-25 13:00:00,57.8,31.0,30.03,South,184,18.0,25.0,36,0.00,,,0.00,VWS V14.01,2013-04-25 18:00:00,
2013-04-25 13:02:00,63.5,30.7,29.99,SSW,193,20.0,26.0,29,0.00,,,0.00,VWS V14.01,2013-04-25 18:02:00,
2013-04-25 13:07:00,64.0,30.3,29.99,South,182,8.0,25.0,28,0.00,,,0.00,VWS V14.01,2013-04-25 18:07:00,
2013-04-25 13:12:00,64.8,30.1,29.99,SSW,192,19.0,28.0,27,0.00,,,0.00,VWS V14.01,2013-04-25 18:12:00,
2013-04-25 13:15:00,59.0,30.7,30.02,SSW,193,21.0,29.0,34,0.00,,,0.00,VWS V14.01,2013-04-25 18:15:00,
2013-04-25 13:17:00,65.3,30.5,29.97,South,191,17.0,28.0,27,0.00,,,0.00,VWS V14.01,2013-04-25 18:17:00,
2013-04-25 13:22:00,66.3,29.5,29.97,South,176,14.0,25.0,25,0.00,,,0.00,VWS V14.01,2013-04-25 18:22:00,
2013-04-25 13:27:00,66.9,29.0,29.97,SW,227,28.0,28.0,24,0.00,,,0.00,VWS V14.01,2013-04-25 18:27:00,
2013-04-25 13:30:00,60.7,33.6,30.01,SSW,212,19.0,28.0,36,0.00,,,0.00,VWS V14.01,2013-04-25 18:30:00,
2013-04-25 13:32:00,67.3,29.3,29.95,SSW,206,14.0,28.0,24,0.00,,,0.00,VWS V14.01,2013-04-25 18:32:00,
2013-04-25 13:37:00,68.1,30.0,29.95,South,189,17.0,24.0,24,0.00,,,0.00,VWS V14.01,2013-04-25 18:37:00,
2013-04-25 13:42:00,68.6,27.1,29.95,SW,230,21.0,34.0,21,0.00,,,0.00,VWS V14.01,2013-04-25 18:42:00,
2013-04-25 13:45:00,62.0,31.0,30.00,South,186,26.0,27.0,31,0.00,,,0.00,VWS V14.01,2013-04-25 18:45:00,
2013-04-25 13:47:00,68.6,27.1,29.94,SSW,195,29.0,34.0,21,0.00,,,0.00,VWS V14.01,2013-04-25 18:47:00,
2013-04-25 13:52:00,68.3,29.1,29.94,SW,215,21.0,27.0,23,0.00,,,0.00,VWS V14.01,2013-04-25 18:52:00,
2013-04-25 13:57:00,68.3,28.0,29.94,SW,233,22.0,36.0,22,0.00,,,0.00,VWS V14.01,2013-04-25 18:57:00,
2013-04-25 14:00:00,63.5,30.7,29.99,South,179,10.0,26.0,29,0.00,,,0.00,VWS V14.01,2013-04-25 19:00:00,
2013-04-25 14:02:00,68.4,28.1,29.93,SSW,213,19.0,36.0,22,0.00,,,0.00,VWS V14.01,2013-04-25 19:02:00,
2013-04-25 14:07:00,67.6,28.5,29.93,SW,229,18.0,34.0,23,0.00,,,0.00,VWS V14.01,2013-04-25 19:07:00,
2013-04-25 14:12:00,68.4,28.1,29.93,SSW,210,24.0,36.0,22,0.00,,,0.00,VWS V14.01,2013-04-25 19:12:00,
2013-04-25 14:15:00,65.5,30.7,29.97,SSW,209,16.0,28.0,27,0.00,,,0.00,VWS V14.01,2013-04-25 19:15:00,
2013-04-25 14:17:00,68.6,29.4,29.92,SW,220,20.0,36.0,23,0.00,,,0.00,VWS V14.01,2013-04-25 19:17:00,
2013-04-25 14:22:00,68.6,29.4,29.92,SSW,199,30.0,34.0,23,0.00,,,0.00,VWS V14.01,2013-04-25 19:22:00,
2013-04-25 14:27:00,68.4,29.2,29.92,SW,220,26.0,34.0,23,0.00,,,0.00,VWS V14.01,2013-04-25 19:27:00,
2013-04-25 14:30:00,67.3,29.3,29.95,South,185,12.0,28.0,24,0.00,,,0.00,VWS V14.01,2013-04-25 19:30:00,
2013-04-25 14:32:00,68.4,29.2,29.92,SSW,202,14.0,34.0,23,0.00,,,0.00,VWS V14.01,2013-04-25 19:32:00,
2013-04-25 14:37:00,68.6,28.3,29.92,SSW,212,26.0,29.0,22,0.00,,,0.00,VWS V14.01,2013-04-25 19:37:00,
2013-04-25 14:42:00,67.9,28.8,29.92,SSW,212,21.0,32.0,23,0.00,,,0.00,VWS V14.01,2013-04-25 19:42:00,
2013-04-25 14:45:00,68.6,27.1,29.94,SSW,202,24.0,34.0,21,0.00,,,0.00,VWS V14.01,2013-04-25 19:45:00,
2013-04-25 14:47:00,68.3,28.0,29.92,SW,236,32.0,34.0,22,0.00,,,0.00,VWS V14.01,2013-04-25 19:47:00,
2013-04-25 14:52:00,68.3,29.1,29.92,SSW,213,14.0,30.0,23,0.00,,,0.00,VWS V14.01,2013-04-25 19:52:00,
2013-04-25 14:57:00,68.4,29.2,29.92,SW,215,14.0,30.0,23,0.00,,,0.00,VWS V14.01,2013-04-25 19:57:00,
2013-04-25 15:00:00,68.4,27.0,29.93,SW,220,28.0,36.0,21,0.00,,,0.00,VWS V14.01,2013-04-25 20:00:00,
2013-04-25 15:02:00,69.3,27.7,29.90,SW,217,19.0,30.0,21,0.00,,,0.00,VWS V14.01,2013-04-25 20:02:00,
2013-04-25 15:07:00,69.6,29.1,29.90,SSW,195,26.0,31.0,22,0.00,,,0.00,VWS V14.01,2013-04-25 20:07:00,
2013-04-25 15:12:00,68.6,29.4,29.90,SSW,193,28.0,33.0,23,0.00,,,0.00,VWS V14.01,2013-04-25 20:12:00,
2013-04-25 15:15:00,68.8,29.5,29.92,SW,219,19.0,36.0,23,0.00,,,0.00,VWS V14.01,2013-04-25 20:15:00,
2013-04-25 15:17:00,69.1,28.7,29.89,SSW,199,25.0,34.0,22,0.00,,,0.00,VWS V14.01,2013-04-25 20:17:00,
2013-04-25 15:22:00,69.9,29.4,29.89,South,185,16.0,31.0,22,0.00,,,0.00,VWS V14.01,2013-04-25 20:22:00,
2013-04-25 15:27:00,70.1,28.4,29.89,SW,224,30.0,34.0,21,0.00,,,0.00,VWS V14.01,2013-04-25 20:27:00,
2013-04-25 15:30:00,68.4,29.2,29.92,SSW,200,17.0,34.0,23,0.00,,,0.00,VWS V14.01,2013-04-25 20:30:00,
2013-04-25 15:32:00,69.8,25.7,29.88,SW,216,24.0,37.0,19,0.00,,,0.00,VWS V14.01,2013-04-25 20:32:00,
2013-04-25 15:37:00,70.1,26.0,29.88,SSW,192,27.0,34.0,19,0.00,,,0.00,VWS V14.01,2013-04-25 20:37:00,
2013-04-25 15:42:00,70.3,24.8,29.88,SSW,202,28.0,35.0,18,0.00,,,0.00,VWS V14.01,2013-04-25 20:42:00,
2013-04-25 15:45:00,68.4,28.1,29.92,SSW,203,29.0,34.0,22,0.00,,,0.00,VWS V14.01,2013-04-25 20:45:00,
2013-04-25 15:47:00,70.3,24.8,29.87,SSW,196,31.0,36.0,18,0.00,,,0.00,VWS V14.01,2013-04-25 20:47:00,
2013-04-25 15:52:00,70.4,23.5,29.87,SW,227,19.0,36.0,17,0.00,,,0.00,VWS V14.01,2013-04-25 20:52:00,
2013-04-25 15:57:00,70.8,23.9,29.87,SSW,203,24.0,36.0,17,0.00,,,0.00,VWS V14.01,2013-04-25 20:57:00,
2013-04-25 16:00:00,69.3,27.7,29.90,SW,216,18.0,30.0,21,0.00,,,0.00,VWS V14.01,2013-04-25 21:00:00,
2013-04-25 16:02:00,69.8,23.1,29.86,SW,217,28.0,37.0,17,0.00,,,0.00,VWS V14.01,2013-04-25 21:02:00,
2013-04-25 16:07:00,69.4,22.7,29.86,SSW,199,28.0,40.0,17,0.00,,,0.00,VWS V14.01,2013-04-25 21:07:00,
2013-04-25 16:12:00,69.3,22.6,29.86,SSW,200,30.0,40.0,17,0.00,,,0.00,VWS V14.01,2013-04-25 21:12:00,
2013-04-25 16:15:00,69.1,28.7,29.89,SSW,192,28.0,34.0,22,0.00,,,0.00,VWS V14.01,2013-04-25 21:15:00,
2013-04-25 16:17:00,69.8,24.4,29.85,SW,216,30.0,40.0,18,0.00,,,0.00,VWS V14.01,2013-04-25 21:17:00,
2013-04-25 16:22:00,69.6,24.2,29.85,SSW,200,28.0,34.0,18,0.00,,,0.00,VWS V14.01,2013-04-25 21:22:00,
2013-04-25 16:27:00,69.6,24.2,29.85,SSW,208,29.0,37.0,18,0.00,,,0.00,VWS V14.01,2013-04-25 21:27:00,
2013-04-25 16:30:00,69.8,25.7,29.88,SW,220,26.0,37.0,19,0.00,,,0.00,VWS V14.01,2013-04-25 21:30:00,
2013-04-25 16:32:00,70.1,23.3,29.84,SW,217,36.0,39.0,17,0.00,,,0.00,VWS V14.01,2013-04-25 21:32:00,
2013-04-25 16:37:00,69.9,23.1,29.84,SW,215,26.0,36.0,17,0.00,,,0.00,VWS V14.01,2013-04-25 21:37:00,
2013-04-25 16:42:00,69.6,22.9,29.84,SSW,208,26.0,36.0,17,0.00,,,0.00,VWS V14.01,2013-04-25 21:42:00,
2013-04-25 16:45:00,70.3,24.8,29.87,SSW,200,24.0,36.0,18,0.00,,,0.00,VWS V14.01,2013-04-25 21:45:00,
2013-04-25 16:47:00,69.4,24.1,29.84,SSW,205,24.0,36.0,18,0.00,,,0.00,VWS V14.01,2013-04-25 21:47:00,
2013-04-25 16:52:00,69.4,24.1,29.84,SSW,210,21.0,32.0,18,0.00,,,0.00,VWS V14.01,2013-04-25 21:52:00,
2013-04-25 16:57:00,69.3,22.6,29.84,SSW,210,31.0,40.0,17,0.00,,,0.00,VWS V14.01,2013-04-25 21:57:00,
2013-04-25 17:00:00,69.8,21.6,29.86,SW,217,24.0,37.0,16,0.00,,,0.00,VWS V14.01,2013-04-25 22:00:00,
2013-04-25 17:02:00,68.9,23.7,29.84,SSW,209,28.0,40.0,18,0.00,,,0.00,VWS V14.01,2013-04-25 22:02:00,
2013-04-25 17:07:00,68.9,23.7,29.84,SSW,209,24.0,40.0,18,0.00,,,0.00,VWS V14.01,2013-04-25 22:07:00,
2013-04-25 17:12:00,68.9,22.3,29.84,SSW,203,29.0,40.0,17,0.00,,,0.00,VWS V14.01,2013-04-25 22:12:00,
2013-04-25 17:15:00,69.8,24.4,29.85,SW,216,30.0,40.0,18,0.00,,,0.00,VWS V14.01,2013-04-25 22:15:00,
2013-04-25 17:17:00,68.9,23.7,29.83,South,184,17.0,40.0,18,0.00,,,0.00,VWS V14.01,2013-04-25 22:17:00,
2013-04-25 17:22:00,69.4,24.1,29.83,SSW,200,26.0,33.0,18,0.00,,,0.00,VWS V14.01,2013-04-25 22:22:00,
2013-04-25 17:27:00,69.6,22.9,29.83,South,189,17.0,33.0,17,0.00,,,0.00,VWS V14.01,2013-04-25 22:27:00,
2013-04-25 17:30:00,70.1,23.3,29.84,SW,217,36.0,39.0,17,0.00,,,0.00,VWS V14.01,2013-04-25 22:30:00,
2013-04-25 17:32:00,69.3,22.6,29.82,SSE,165,15.0,37.0,17,0.00,,,0.00,VWS V14.01,2013-04-25 22:32:00,
2013-04-25 17:37:00,69.1,22.5,29.82,SSW,210,17.0,29.0,17,0.00,,,0.00,VWS V14.01,2013-04-25 22:37:00,
2013-04-25 17:42:00,69.3,22.6,29.82,SSW,193,30.0,38.0,17,0.00,,,0.00,VWS V14.01,2013-04-25 22:42:00,
2013-04-25 17:45:00,69.4,24.1,29.84,SSW,192,24.0,36.0,18,0.00,,,0.00,VWS V14.01,2013-04-25 22:45:00,
2013-04-25 17:47:00,68.8,20.8,29.82,SSW,206,28.0,38.0,16,0.00,,,0.00,VWS V14.01,2013-04-25 22:47:00,
2013-04-25 17:52:00,68.9,20.9,29.82,SSW,196,27.0,32.0,16,0.00,,,0.00,VWS V14.01,2013-04-25 22:52:00,
2013-04-25 17:57:00,68.6,20.6,29.82,SSW,203,26.0,32.0,16,0.00,,,0.00,VWS V14.01,2013-04-25 22:57:00,
2013-04-25 18:00:00,68.9,23.7,29.84,SSW,209,26.0,40.0,18,0.00,,,0.00,VWS V14.01,2013-04-25 23:00:00,
2013-04-25 18:02:00,68.3,20.4,29.82,SSW,203,22.0,32.0,16,0.00,,,0.00,VWS V14.01,2013-04-25 23:02:00,
2013-04-25 18:07:00,68.8,20.8,29.82,SSW,202,22.0,34.0,16,0.00,,,0.00,VWS V14.01,2013-04-25 23:07:00,
2013-04-25 18:12:00,68.8,20.8,29.82,SSW,198,24.0,34.0,16,0.00,,,0.00,VWS V14.01,2013-04-25 23:12:00,
2013-04-25 18:15:00,68.9,23.7,29.83,South,184,17.0,40.0,18,0.00,,,0.00,VWS V14.01,2013-04-25 23:15:00,
2013-04-25 18:17:00,68.6,20.6,29.81,SSE,167,17.0,34.0,16,0.00,,,0.00,VWS V14.01,2013-04-25 23:17:00,
2013-04-25 18:22:00,68.6,20.6,29.81,SSW,195,17.0,34.0,16,0.00,,,0.00,VWS V14.01,2013-04-25 23:22:00,
2013-04-25 18:27:00,68.6,20.6,29.81,South,189,19.0,34.0,16,0.00,,,0.00,VWS V14.01,2013-04-25 23:27:00,
2013-04-25 18:30:00,69.3,22.6,29.82,SSE,165,15.0,37.0,17,0.00,,,0.00,VWS V14.01,2013-04-25 23:30:00,
2013-04-25 18:32:00,67.9,18.6,29.82,SSW,203,24.0,34.0,15,0.00,,,0.00,VWS V14.01,2013-04-25 23:32:00,
2013-04-25 18:37:00,67.4,18.2,29.82,SSW,203,29.0,35.0,15,0.00,,,0.00,VWS V14.01,2013-04-25 23:37:00,
2013-04-25 18:42:00,67.3,19.6,29.82,SSW,205,29.0,35.0,16,0.00,,,0.00,VWS V14.01,2013-04-25 23:42:00,
2013-04-25 18:45:00,68.8,20.8,29.82,SSW,206,28.0,38.0,16,0.00,,,0.00,VWS V14.01,2013-04-25 23:45:00,
2013-04-25 18:47:00,66.6,19.0,29.82,SSW,193,20.0,35.0,16,0.00,,,0.00,VWS V14.01,2013-04-25 23:47:00,
2013-04-25 18:52:00,66.3,20.2,29.82,South,189,16.0,28.0,17,0.00,,,0.00,VWS V14.01,2013-04-25 23:52:00,
2013-04-25 18:57:00,66.0,21.3,29.82,SSW,202,20.0,33.0,18,0.00,,,0.00,VWS V14.01,2013-04-25 23:57:00,
2013-04-25 19:00:00,68.3,20.4,29.82,SSW,193,20.0,32.0,16,0.00,,,0.00,VWS V14.01,2013-04-26 00:00:00,
2013-04-25 19:02:00,65.6,21.0,29.82,SSW,193,30.0,33.0,18,0.00,,,0.00,VWS V14.01,2013-04-26 00:02:00,
2013-04-25 19:07:00,65.0,20.5,29.82,SSW,202,20.0,35.0,18,0.00,,,0.00,VWS V14.01,2013-04-26 00:07:00,
2013-04-25 19:12:00,64.3,21.2,29.82,SSW,199,32.0,37.0,19,0.00,,,0.00,VWS V14.01,2013-04-26 00:12:00,
2013-04-25 19:15:00,68.6,20.6,29.81,SSE,167,17.0,34.0,16,0.00,,,0.00,VWS V14.01,2013-04-26 00:15:00,
2013-04-25 19:17:00,64.0,20.9,29.82,SSW,203,19.0,37.0,19,0.00,,,0.00,VWS V14.01,2013-04-26 00:17:00,
2013-04-25 19:22:00,63.7,20.7,29.82,South,176,24.0,32.0,19,0.00,,,0.00,VWS V14.01,2013-04-26 00:22:00,
2013-04-25 19:27:00,63.4,22.8,29.82,SSW,195,18.0,34.0,21,0.00,,,0.00,VWS V14.01,2013-04-26 00:27:00,
2013-04-25 19:30:00,67.9,18.6,29.82,SSW,203,24.0,34.0,15,0.00,,,0.00,VWS V14.01,2013-04-26 00:30:00,
2013-04-25 19:32:00,63.2,21.5,29.82,SSW,198,24.0,34.0,20,0.00,,,0.00,VWS V14.01,2013-04-26 00:32:00,
2013-04-25 19:37:00,63.1,21.4,29.82,SSW,208,24.0,28.0,20,0.00,,,0.00,VWS V14.01,2013-04-26 00:37:00,
2013-04-25 19:42:00,63.1,21.4,29.82,South,189,27.0,32.0,20,0.00,,,0.00,VWS V14.01,2013-04-26 00:42:00,
2013-04-25 19:45:00,66.6,19.0,29.82,SSW,193,20.0,35.0,16,0.00,,,0.00,VWS V14.01,2013-04-26 00:45:00,
2013-04-25 19:47:00,62.9,21.2,29.82,South,185,16.0,32.0,20,0.00,,,0.00,VWS V14.01,2013-04-26 00:47:00,
2013-04-25 19:52:00,62.4,22.0,29.82,SSW,200,20.0,29.0,21,0.00,,,0.00,VWS V14.01,2013-04-26 00:52:00,
2013-04-25 19:57:00,62.0,20.5,29.82,SSW,202,19.0,29.0,20,0.00,,,0.00,VWS V14.01,2013-04-26 00:57:00,
2013-04-25 20:00:00,65.6,21.0,29.82,SSW,195,27.0,33.0,18,0.00,,,0.00,VWS V14.01,2013-04-26 01:00:00,
2013-04-25 20:02:00,61.5,21.2,29.83,SSW,193,17.0,29.0,21,0.00,,,0.00,VWS V14.01,2013-04-26 01:02:00,
2013-04-25 20:07:00,61.0,21.9,29.83,South,184,16.0,22.0,22,0.00,,,0.00,VWS V14.01,2013-04-26 01:07:00,
2013-04-25 20:12:00,60.7,19.4,29.83,South,191,21.0,22.0,20,0.00,,,0.00,VWS V14.01,2013-04-26 01:12:00,
2013-04-25 20:15:00,64.0,20.9,29.82,SSW,203,19.0,37.0,19,0.00,,,0.00,VWS V14.01,2013-04-26 01:15:00,
2013-04-25 20:17:00,60.4,19.2,29.81,SSW,198,12.0,22.0,20,0.00,,,0.00,VWS V14.01,2013-04-26 01:17:00,
2013-04-25 20:22:00,60.1,20.1,29.81,South,182,13.0,21.0,21,0.00,,,0.00,VWS V14.01,2013-04-26 01:22:00,
2013-04-25 20:27:00,59.6,20.7,29.81,South,181,12.0,21.0,22,0.00,,,0.00,VWS V14.01,2013-04-26 01:27:00,
2013-04-25 20:30:00,63.2,21.5,29.82,SSW,203,22.0,34.0,20,0.00,,,0.00,VWS V14.01,2013-04-26 01:30:00,
2013-04-25 20:32:00,59.5,19.6,29.82,South,181,13.0,21.0,21,0.00,,,0.00,VWS V14.01,2013-04-26 01:32:00,
2013-04-25 20:37:00,59.0,20.2,29.82,South,171,10.0,18.0,22,0.00,,,0.00,VWS V14.01,2013-04-26 01:37:00,
2013-04-25 20:42:00,58.7,21.0,29.82,South,188,12.0,18.0,23,0.00,,,0.00,VWS V14.01,2013-04-26 01:42:00,
2013-04-25 20:45:00,62.9,21.2,29.82,South,185,16.0,32.0,20,0.00,,,0.00,VWS V14.01,2013-04-26 01:45:00,
2013-04-25 20:47:00,58.6,20.9,29.83,SSW,195,18.0,20.0,23,0.00,,,0.00,VWS V14.01,2013-04-26 01:47:00,
2013-04-25 20:52:00,58.4,21.8,29.83,South,191,11.0,18.0,24,0.00,,,0.00,VWS V14.01,2013-04-26 01:52:00,
2013-04-25 20:57:00,58.1,20.5,29.83,South,184,7.0,18.0,23,0.00,,,0.00,VWS V14.01,2013-04-26 01:57:00,
2013-04-25 21:00:00,61.5,21.2,29.83,SSW,193,17.0,29.0,21,0.00,,,0.00,VWS V14.01,2013-04-26 02:00:00,
2013-04-25 21:02:00,57.8,21.3,29.84,South,185,8.0,18.0,24,0.00,,,0.00,VWS V14.01,2013-04-26 02:02:00,
2013-04-25 21:07:00,57.5,21.0,29.84,SSW,193,14.0,17.0,24,0.00,,,0.00,VWS V14.01,2013-04-26 02:07:00,
2013-04-25 21:12:00,57.2,21.7,29.84,South,191,17.0,18.0,25,0.00,,,0.00,VWS V14.01,2013-04-26 02:12:00,
2013-04-25 21:15:00,60.4,19.2,29.81,SSW,198,12.0,22.0,20,0.00,,,0.00,VWS V14.01,2013-04-26 02:15:00,
2013-04-25 21:17:00,56.7,22.2,29.83,South,179,16.0,19.0,26,0.00,,,0.00,VWS V14.01,2013-04-26 02:17:00,
2013-04-25 21:22:00,56.3,22.8,29.83,South,181,14.0,18.0,27,0.00,,,0.00,VWS V14.01,2013-04-26 02:22:00,
2013-04-25 21:27:00,56.0,23.4,29.83,South,185,17.0,19.0,28,0.00,,,0.00,VWS V14.01,2013-04-26 02:27:00,
2013-04-25 21:30:00,59.5,19.6,29.82,South,181,13.0,21.0,21,0.00,,,0.00,VWS V14.01,2013-04-26 02:30:00,
2013-04-25 21:32:00,55.6,23.9,29.84,South,181,10.0,19.0,29,0.00,,,0.00,VWS V14.01,2013-04-26 02:32:00,
2013-04-25 21:37:00,55.3,24.4,29.84,South,185,9.0,17.0,30,0.00,,,0.00,VWS V14.01,2013-04-26 02:37:00,
2013-04-25 21:42:00,55.0,25.7,29.84,South,184,12.0,17.0,32,0.00,,,0.00,VWS V14.01,2013-04-26 02:42:00,
2013-04-25 21:45:00,58.6,20.9,29.83,SSW,195,18.0,20.0,23,0.00,,,0.00,VWS V14.01,2013-04-26 02:45:00,
2013-04-25 21:47:00,54.8,24.8,29.85,South,181,7.0,7.0,31,0.00,,,0.00,VWS V14.01,2013-04-26 02:47:00,
2013-04-25 21:52:00,54.7,24.7,29.85,South,189,8.0,17.0,31,0.00,,,0.00,VWS V14.01,2013-04-26 02:52:00,
2013-04-25 21:57:00,54.4,25.2,29.85,South,185,10.0,17.0,32,0.00,,,0.00,VWS V14.01,2013-04-26 02:57:00,
2013-04-25 22:00:00,57.8,21.3,29.84,South,185,8.0,18.0,24,0.00,,,0.00,VWS V14.01,2013-04-26 03:00:00,
2013-04-25 22:02:00,54.2,25.7,29.86,South,186,8.0,9.0,33,0.00,,,0.00,VWS V14.01,2013-04-26 03:02:00,
2013-04-25 22:07:00,53.9,26.2,29.86,SSW,200,13.0,15.0,34,0.00,,,0.00,VWS V14.01,2013-04-26 03:07:00,
2013-04-25 22:12:00,53.6,25.9,29.86,South,179,7.0,15.0,34,0.00,,,0.00,VWS V14.01,2013-04-26 03:12:00,
2013-04-25 22:15:00,56.7,22.2,29.83,South,179,16.0,19.0,26,0.00,,,0.00,VWS V14.01,2013-04-26 03:15:00,
2013-04-25 22:17:00,53.5,26.5,29.86,South,191,6.0,16.0,35,0.00,,,0.00,VWS V14.01,2013-04-26 03:17:00,
2013-04-25 22:22:00,53.3,25.7,29.86,South,189,12.0,14.0,34,0.00,,,0.00,VWS V14.01,2013-04-26 03:22:00,
2013-04-25 22:27:00,53.3,26.4,29.86,South,172,9.0,14.0,35,0.00,,,0.00,VWS V14.01,2013-04-26 03:27:00,
2013-04-25 22:30:00,55.6,23.9,29.84,South,181,10.0,19.0,29,0.00,,,0.00,VWS V14.01,2013-04-26 03:30:00,
2013-04-25 22:32:00,53.1,26.2,29.86,South,189,7.0,9.0,35,0.00,,,0.00,VWS V14.01,2013-04-26 03:32:00,
2013-04-25 22:37:00,53.1,24.8,29.86,South,188,13.0,17.0,33,0.00,,,0.00,VWS V14.01,2013-04-26 03:37:00,
2013-04-25 22:42:00,52.9,26.7,29.86,South,186,8.0,17.0,36,0.00,,,0.00,VWS V14.01,2013-04-26 03:42:00,
2013-04-25 22:45:00,54.8,25.5,29.85,South,181,7.0,18.0,32,0.00,,,0.00,VWS V14.01,2013-04-26 03:45:00,
2013-04-25 22:47:00,52.8,26.6,29.87,South,185,10.0,10.0,36,0.00,,,0.00,VWS V14.01,2013-04-26 03:47:00,
2013-04-25 22:52:00,52.6,26.4,29.87,South,186,12.0,19.0,36,0.00,,,0.00,VWS V14.01,2013-04-26 03:52:00,
2013-04-25 22:57:00,52.5,25.7,29.87,South,186,17.0,19.0,35,0.00,,,0.00,VWS V14.01,2013-04-26 03:57:00,
2013-04-25 23:00:00,54.2,25.7,29.86,South,186,9.0,17.0,33,0.00,,,0.00,VWS V14.01,2013-04-26 04:00:00,
2013-04-25 23:01:00,52.3,26.8,29.87,SSW,193,14.0,19.0,37,0.00,,,0.00,VWS V14.01,2013-04-26 04:01:00,
2013-04-25 23:06:00,52.0,26.5,29.88,SSW,196,11.0,16.0,37,0.00,,,0.00,VWS V14.01,2013-04-26 04:06:00,
2013-04-25 23:11:00,51.9,26.5,29.88,SSE,155,10.0,16.0,37,0.00,,,0.00,VWS V14.01,2013-04-26 04:11:00,
2013-04-25 23:15:00,53.5,26.5,29.86,South,191,6.0,16.0,35,0.00,,,0.00,VWS V14.01,2013-04-26 04:15:00,
2013-04-25 23:16:00,51.7,26.9,29.86,South,178,12.0,16.0,38,0.00,,,0.00,VWS V14.01,2013-04-26 04:16:00,
2013-04-25 23:21:00,51.4,27.3,29.86,South,185,12.0,18.0,39,0.00,,,0.00,VWS V14.01,2013-04-26 04:21:00,
2013-04-25 23:26:00,51.4,26.7,29.86,South,184,8.0,18.0,38,0.00,,,0.00,VWS V14.01,2013-04-26 04:26:00,
2013-04-25 23:30:00,53.2,25.6,29.86,South,191,9.0,18.0,34,0.00,,,0.00,VWS V14.01,2013-04-26 04:30:00,
2013-04-25 23:31:00,51.3,27.2,29.86,South,186,8.0,18.0,39,0.00,,,0.00,VWS V14.01,2013-04-26 04:31:00,
2013-04-25 23:36:00,51.0,26.9,29.86,South,175,10.0,16.0,39,0.00,,,0.00,VWS V14.01,2013-04-26 04:36:00,
2013-04-25 23:41:00,50.8,26.1,29.86,South,174,11.0,17.0,38,0.00,,,0.00,VWS V14.01,2013-04-26 04:41:00,
2013-04-25 23:45:00,52.8,26.6,29.87,South,181,6.0,17.0,36,0.00,,,0.00,VWS V14.01,2013-04-26 04:45:00,
2013-04-25 23:46:00,50.5,27.1,29.87,South,184,10.0,19.0,40,0.00,,,0.00,VWS V14.01,2013-04-26 04:46:00,
2013-04-25 23:51:00,50.4,27.6,29.87,South,179,12.0,16.0,41,0.00,,,0.00,VWS V14.01,2013-04-26 04:51:00,
2013-04-25 23:56:00,50.1,27.3,29.87,South,186,7.0,16.0,41,0.00,,,0.00,VWS V14.01,2013-04-26 04:56:00,